Time;durP1;ratioP1;P1;durP2;ratioP2;P2;SDS_P1;SDS_P2;PMS_P1;PMS_P2;Temp;Humidity;BMP_temperature;BMP_pressure;BME280_temperature;BME280_humidity;BME280_pressure;Samples;Min_cycle;Max_cycle;Signal;HPM_P1;HPM_P2
2021/01/02 00:01:07;;;;;;;27.83;16.98;;;4.70;99.90;;;;;;4159338;28;20057;-83
2021/01/02 00:03:21;;;;;;;26.08;15.43;;;4.70;99.90;;;;;;4170037;28;20026;-83
2021/01/02 00:05:26;;;;;;;26.25;15.70;;;4.70;99.90;;;;;;4157429;28;20100;-83
2021/01/02 00:07:56;;;;;;;28.67;16.27;;;4.70;99.90;;;;;;4152767;28;20101;-83
2021/01/02 00:10:00;;;;;;;28.08;16.27;;;4.70;99.90;;;;;;4152947;28;20774;-83
2021/01/02 00:12:14;;;;;;;30.27;16.05;;;4.60;99.90;;;;;;4144595;28;20030;-83
2021/01/02 00:15:01;;;;;;;23.20;14.40;;;4.70;99.90;;;;;;4169114;28;20029;-83
2021/01/02 00:17:43;;;;;;;25.80;15.20;;;4.70;99.90;;;;;;4160732;28;20041;-83
2021/01/02 00:20:02;;;;;;;23.75;14.45;;;4.70;99.90;;;;;;4153896;28;20029;-83
2021/01/02 00:22:50;;;;;;;24.58;15.45;;;4.70;99.90;;;;;;4160891;28;22898;-83
2021/01/02 00:24:54;;;;;;;23.02;14.35;;;4.70;99.90;;;;;;4097489;28;20126;-83
2021/01/02 00:27:28;;;;;;;26.80;15.57;;;4.70;99.90;;;;;;4090010;29;20035;-83
2021/01/02 00:29:42;;;;;;;27.55;15.60;;;4.70;99.90;;;;;;4110260;28;20033;-83
2021/01/02 00:32:00;;;;;;;28.45;15.32;;;4.60;99.90;;;;;;4169727;28;20026;-83
2021/01/02 00:34:15;;;;;;;25.00;14.90;;;4.70;99.90;;;;;;4167736;28;20447;-83
2021/01/02 00:36:39;;;;;;;27.27;15.70;;;4.70;99.90;;;;;;4151936;28;20018;-83
2021/01/02 00:38:41;;;;;;;24.65;14.20;;;4.70;99.90;;;;;;4152523;28;20045;-83
2021/01/02 00:40:42;;;;;;;;;;;4.70;99.90;;;;;;4145960;28;20454;-83
2021/01/02 00:42:44;;;;;;;24.33;14.77;;;4.70;99.90;;;;;;4168374;28;19917;-83
2021/01/02 00:44:45;;;;;;;;;;;4.70;99.90;;;;;;4170096;28;20835;-83
2021/01/02 00:46:47;;;;;;;24.27;15.27;;;4.70;99.90;;;;;;4169880;28;19952;-83
2021/01/02 00:48:48;;;;;;;29.88;16.83;;;4.70;99.90;;;;;;4152247;28;20068;-83
2021/01/02 00:50:49;;;;;;;27.55;15.90;;;4.60;99.90;;;;;;4170816;28;20040;-83
2021/01/02 00:53:27;;;;;;;27.58;16.67;;;4.60;99.90;;;;;;4148698;28;20033;-83
2021/01/02 00:55:51;;;;;;;24.10;15.60;;;4.60;99.90;;;;;;4158966;28;20421;-83
2021/01/02 00:58:08;;;;;;;27.50;15.20;;;4.60;99.90;;;;;;4155321;28;20041;-83
2021/01/02 01:00:10;;;;;;;27.75;15.73;;;4.60;99.90;;;;;;4163683;28;20041;-83
2021/01/02 01:02:26;;;;;;;23.38;14.32;;;4.60;99.90;;;;;;4156326;28;20140;-83
2021/01/02 01:04:56;;;;;;;28.13;15.80;;;4.60;99.90;;;;;;4144510;28;20088;-83
2021/01/02 01:07:17;;;;;;;23.95;13.90;;;4.60;99.90;;;;;;4162828;28;20033;-83
2021/01/02 01:09:23;;;;;;;26.25;14.63;;;4.60;99.90;;;;;;4159677;28;20096;-83
2021/01/02 01:11:36;;;;;;;25.00;15.48;;;4.70;99.90;;;;;;4166825;28;20108;-83
2021/01/02 01:13:38;;;;;;;24.35;14.70;;;4.60;99.90;;;;;;4163216;28;20028;-83
2021/01/02 01:15:41;;;;;;;25.27;14.88;;;4.70;99.90;;;;;;4160560;28;20091;-83
2021/01/02 01:18:16;;;;;;;25.80;15.32;;;4.70;99.90;;;;;;4173930;28;20033;-83
2021/01/02 01:20:17;;;;;;;24.23;15.32;;;4.60;99.90;;;;;;4155744;28;20034;-83
2021/01/02 01:22:26;;;;;;;24.92;15.05;;;4.60;99.90;;;;;;4171241;28;20468;-83
2021/01/02 01:24:46;;;;;;;24.20;14.68;;;4.60;99.90;;;;;;4168210;28;20116;-83
2021/01/02 01:27:01;;;;;;;23.83;14.43;;;4.50;99.90;;;;;;4168562;28;20033;-83
2021/01/02 01:29:03;;;;;;;25.30;15.15;;;4.50;99.90;;;;;;4144646;28;20367;-83
2021/01/02 01:31:05;;;;;;;23.35;15.48;;;4.60;99.90;;;;;;4172244;28;20175;-83
2021/01/02 01:33:08;;;;;;;23.60;14.77;;;4.60;99.90;;;;;;4177551;28;20022;-83
2021/01/02 01:35:12;;;;;;;25.48;14.30;;;4.60;99.90;;;;;;4168972;28;20033;-83
2021/01/02 01:37:17;;;;;;;27.90;16.08;;;4.60;99.90;;;;;;4172121;28;20041;-83
2021/01/02 01:39:23;;;;;;;25.92;15.40;;;4.50;99.90;;;;;;4160412;28;20042;-83
2021/01/02 01:41:35;;;;;;;26.10;16.70;;;4.50;99.90;;;;;;4164643;28;20118;-83
2021/01/02 01:44:15;;;;;;;25.83;16.25;;;4.60;99.90;;;;;;4168825;28;20033;-83
2021/01/02 01:46:17;;;;;;;25.70;14.13;;;4.60;99.90;;;;;;4159774;28;20080;-83
2021/01/02 01:48:32;;;;;;;25.15;15.48;;;4.60;99.90;;;;;;4143550;28;20038;-83
2021/01/02 01:51:02;;;;;;;24.00;14.27;;;4.60;99.90;;;;;;4159592;28;20064;-83
2021/01/02 01:53:41;;;;;;;24.98;14.23;;;4.50;99.90;;;;;;4176259;28;20056;-83
2021/01/02 01:55:57;;;;;;;24.83;14.45;;;4.50;99.90;;;;;;4159401;28;20541;-83
2021/01/02 01:58:11;;;;;;;25.10;15.13;;;4.50;99.90;;;;;;4171241;28;20040;-83
2021/01/02 02:00:19;;;;;;;24.13;14.80;;;4.50;99.90;;;;;;4173193;28;20056;-83
2021/01/02 02:02:47;;;;;;;23.95;14.43;;;4.50;99.90;;;;;;4144418;28;20471;-83
2021/01/02 02:04:53;;;;;;;28.27;15.98;;;4.50;99.90;;;;;;4161430;28;20056;-83
2021/01/02 02:07:00;;;;;;;24.63;14.48;;;4.50;99.90;;;;;;4155095;28;20235;-83
2021/01/02 02:09:02;;;;;;;27.20;16.58;;;4.50;99.90;;;;;;4192371;28;20395;-83
2021/01/02 02:11:04;;;;;;;28.10;16.27;;;4.50;99.90;;;;;;4158885;28;20025;-83
2021/01/02 02:13:12;;;;;;;26.05;15.45;;;4.40;99.90;;;;;;4156514;28;20037;-83
2021/01/02 02:15:18;;;;;;;24.98;15.85;;;4.40;99.90;;;;;;4143752;28;20030;-83
2021/01/02 02:17:24;;;;;;;26.52;15.50;;;4.40;99.90;;;;;;4149914;28;20040;-83
2021/01/02 02:20:00;;;;;;;24.98;15.07;;;4.40;99.90;;;;;;4161353;28;20095;-83
2021/01/02 02:22:21;;;;;;;22.33;13.77;;;4.40;99.90;;;;;;4165819;28;20045;-83
2021/01/02 02:24:27;;;;;;;25.75;15.50;;;4.40;99.90;;;;;;4153040;28;20034;-83
2021/01/02 02:26:36;;;;;;;25.27;15.18;;;4.40;99.90;;;;;;4170766;28;20034;-83
2021/01/02 02:29:13;;;;;;;23.45;14.07;;;4.40;99.90;;;;;;4170493;28;20044;-83
2021/01/02 02:31:16;;;;;;;23.67;14.77;;;4.40;99.90;;;;;;4170381;28;20720;-83
2021/01/02 02:33:21;;;;;;;28.88;16.83;;;4.30;99.90;;;;;;4154705;28;20029;-83
2021/01/02 02:35:22;;;;;;;25.70;15.35;;;4.30;99.90;;;;;;4171425;28;20033;-83
2021/01/02 02:37:22;;;;;;;22.25;13.63;;;4.30;99.90;;;;;;4173919;28;20033;-83
2021/01/02 02:39:23;;;;;;;21.92;13.60;;;4.30;99.90;;;;;;4176689;28;20044;-83
2021/01/02 02:41:28;;;;;;;23.10;13.73;;;4.30;99.90;;;;;;4165982;28;20041;-83
2021/01/02 02:43:39;;;;;;;27.67;14.88;;;4.40;99.90;;;;;;4164630;28;20088;-83
2021/01/02 02:45:39;;;;;;;22.77;13.60;;;4.30;99.90;;;;;;4170346;28;20115;-83
2021/01/02 02:47:41;;;;;;;26.23;14.27;;;4.30;99.90;;;;;;4148443;28;20053;-83
2021/01/02 02:49:46;;;;;;;25.23;15.07;;;4.30;99.90;;;;;;4175958;28;20112;-83
2021/01/02 02:52:06;;;;;;;24.88;14.38;;;4.30;99.90;;;;;;4154764;28;20029;-83
2021/01/02 02:54:07;;;;;;;25.15;14.43;;;4.30;99.90;;;;;;4156763;28;20044;-83
2021/01/02 02:56:08;;;;;;;21.23;13.90;;;4.30;99.90;;;;;;4170605;28;20033;-83
2021/01/02 02:58:10;;;;;;;23.73;14.48;;;4.30;99.90;;;;;;4139015;28;20046;-83
2021/01/02 03:00:11;;;;;;;25.65;14.52;;;4.40;99.90;;;;;;4149412;28;20468;-83
2021/01/02 03:02:14;;;;;;;25.20;13.70;;;4.40;99.90;;;;;;4163818;28;20053;-83
2021/01/02 03:04:15;;;;;;;22.55;13.85;;;4.40;99.90;;;;;;4167851;28;20102;-83
2021/01/02 03:06:16;;;;;;;23.23;14.05;;;4.40;99.90;;;;;;4153138;28;20154;-83
2021/01/02 03:08:17;;;;;;;24.88;14.70;;;4.30;99.90;;;;;;4154282;28;20073;-83
2021/01/02 03:10:20;;;;;;;22.55;13.57;;;4.40;99.90;;;;;;4173902;28;20088;-83
2021/01/02 03:12:20;;;;;;;;;;;4.30;99.90;;;;;;4164203;28;20041;-83
2021/01/02 03:14:21;;;;;;;22.88;13.32;;;4.30;99.90;;;;;;4154263;28;21787;-83
2021/01/02 03:16:21;;;;;;;21.90;13.85;;;4.30;99.90;;;;;;4169037;28;20037;-83
2021/01/02 03:18:22;;;;;;;22.50;13.38;;;4.30;99.90;;;;;;4154003;28;20386;-83
2021/01/02 03:20:23;;;;;;;25.63;13.18;;;4.30;99.90;;;;;;4167851;28;20042;-83
2021/01/02 03:22:23;;;;;;;24.73;13.93;;;4.30;99.90;;;;;;4179203;28;20138;-84
2021/01/02 03:24:24;;;;;;;25.20;14.05;;;4.30;99.90;;;;;;4161602;28;20080;-83
2021/01/02 03:26:25;;;;;;;23.38;13.52;;;4.30;99.90;;;;;;4155493;28;20037;-83
2021/01/02 03:28:33;;;;;;;24.00;13.82;;;4.30;99.90;;;;;;4155587;28;20026;-83
2021/01/02 03:30:33;;;;;;;24.10;14.20;;;4.30;99.90;;;;;;4177024;28;20584;-83
2021/01/02 03:32:35;;;;;;;25.80;13.90;;;4.30;99.90;;;;;;4162723;28;20033;-83
2021/01/02 03:34:38;;;;;;;24.23;14.50;;;4.30;99.90;;;;;;4148154;28;20088;-84
2021/01/02 03:36:42;;;;;;;22.48;13.80;;;4.30;99.90;;;;;;4148511;28;20262;-84
2021/01/02 03:38:58;;;;;;;22.35;13.52;;;4.30;99.90;;;;;;4155306;28;20034;-84
2021/01/02 03:41:00;;;;;;;24.90;14.57;;;4.30;99.90;;;;;;4153927;28;20081;-84
2021/01/02 03:43:01;;;;;;;24.05;14.18;;;4.30;99.90;;;;;;4175260;28;20043;-84
2021/01/02 03:45:02;;;;;;;24.33;14.23;;;4.30;99.90;;;;;;4169014;28;20030;-84
2021/01/02 03:47:09;;;;;;;21.85;13.15;;;4.30;99.90;;;;;;4169907;28;20036;-84
2021/01/02 03:49:10;;;;;;;23.92;14.40;;;4.30;99.90;;;;;;4169648;28;20481;-84
2021/01/02 03:51:25;;;;;;;22.17;13.40;;;4.30;99.90;;;;;;4169440;28;20049;-84
2021/01/02 03:53:33;;;;;;;22.85;13.73;;;4.30;99.90;;;;;;4145435;28;20030;-83
2021/01/02 03:55:34;;;;;;;22.20;12.82;;;4.30;99.90;;;;;;4162568;28;20082;-83
2021/01/02 03:57:38;;;;;;;22.85;14.10;;;4.30;99.90;;;;;;4167145;28;20047;-83
2021/01/02 03:59:41;;;;;;;21.17;12.95;;;4.30;99.90;;;;;;4164873;28;20120;-83
2021/01/02 04:01:41;;;;;;;21.75;13.73;;;4.30;99.90;;;;;;4148167;28;20020;-84
2021/01/02 04:04:01;;;;;;;21.15;12.35;;;4.30;99.90;;;;;;4163805;28;20022;-84
2021/01/02 04:06:01;;;;;;;23.73;14.30;;;4.30;99.90;;;;;;4166971;28;20737;-84
2021/01/02 04:08:03;;;;;;;21.85;12.93;;;4.30;99.90;;;;;;4170812;28;20029;-84
2021/01/02 04:10:05;;;;;;;22.13;12.95;;;4.30;99.90;;;;;;4158151;28;20064;-84
2021/01/02 04:12:06;;;;;;;27.40;15.48;;;4.30;99.90;;;;;;4146708;28;20107;-84
2021/01/02 04:14:08;;;;;;;24.20;14.18;;;4.30;99.90;;;;;;4169960;28;20033;-84
2021/01/02 04:16:09;;;;;;;20.60;12.53;;;4.20;99.90;;;;;;4147121;28;20026;-84
2021/01/02 04:18:10;;;;;;;21.65;13.45;;;4.30;99.90;;;;;;4154777;28;20268;-84
2021/01/02 04:20:12;;;;;;;23.15;13.40;;;4.30;99.90;;;;;;4169905;28;20026;-84
2021/01/02 04:22:12;;;;;;;20.83;13.13;;;4.30;99.90;;;;;;4161299;28;20032;-84
2021/01/02 04:24:14;;;;;;;24.85;15.38;;;4.30;99.90;;;;;;4172296;28;20116;-84
2021/01/02 04:26:21;;;;;;;26.10;14.45;;;4.30;99.90;;;;;;4170673;28;20143;-84
2021/01/02 04:28:23;;;;;;;23.00;14.00;;;4.30;99.90;;;;;;4178593;28;20044;-84
2021/01/02 04:30:24;;;;;;;23.55;14.38;;;4.30;99.90;;;;;;4146731;28;20463;-84
2021/01/02 04:32:25;;;;;;;22.98;13.13;;;4.30;99.90;;;;;;4152891;28;20517;-84
2021/01/02 04:34:25;;;;;;;21.70;12.65;;;4.30;99.90;;;;;;4154022;28;20033;-84
2021/01/02 04:36:26;;;;;;;25.17;13.35;;;4.30;99.90;;;;;;4181895;28;20036;-84
2021/01/02 04:38:26;;;;;;;23.00;12.98;;;4.30;99.90;;;;;;4152886;28;20030;-84
2021/01/02 04:40:27;;;;;;;22.45;13.60;;;4.40;99.90;;;;;;4161970;28;20041;-84
2021/01/02 04:42:30;;;;;;;24.45;13.77;;;4.40;99.90;;;;;;4170037;28;20117;-84
2021/01/02 04:44:32;;;;;;;22.13;13.82;;;4.40;99.90;;;;;;4153279;28;20140;-84
2021/01/02 04:46:36;;;;;;;27.25;14.25;;;4.40;99.90;;;;;;4154657;28;20033;-84
2021/01/02 04:48:36;;;;;;;26.58;13.57;;;4.40;99.90;;;;;;4153194;28;20084;-84
2021/01/02 04:50:37;;;;;;;25.23;14.15;;;4.40;99.90;;;;;;4153396;28;20072;-84
2021/01/02 04:52:38;;;;;;;23.63;14.80;;;4.30;99.90;;;;;;4160215;28;20079;-84
2021/01/02 04:54:43;;;;;;;21.17;12.48;;;4.30;99.90;;;;;;4177567;28;20137;-84
2021/01/02 04:56:44;;;;;;;24.67;14.50;;;4.30;99.90;;;;;;4153113;28;20040;-84
2021/01/02 04:58:45;;;;;;;22.95;14.07;;;4.30;99.90;;;;;;4186496;28;20036;-84
2021/01/02 05:00:47;;;;;;;25.88;15.32;;;4.30;99.90;;;;;;4155716;28;20041;-84
2021/01/02 05:02:50;;;;;;;30.02;16.38;;;4.30;99.90;;;;;;4164682;28;20042;-84
2021/01/02 05:04:50;;;;;;;27.25;15.00;;;4.30;99.90;;;;;;4156143;28;20524;-84
2021/01/02 05:06:51;;;;;;;26.02;14.65;;;4.30;99.90;;;;;;4178633;28;20037;-84
2021/01/02 05:08:52;;;;;;;23.90;14.00;;;4.30;99.90;;;;;;4153672;28;20414;-84
2021/01/02 05:11:04;;;;;;;23.98;14.57;;;4.30;99.90;;;;;;4169427;28;20064;-84
2021/01/02 05:13:15;;;;;;;22.17;13.57;;;4.30;99.90;;;;;;4166141;28;20036;-84
2021/01/02 05:15:17;;;;;;;25.70;14.97;;;4.30;99.90;;;;;;4164400;28;20116;-84
2021/01/02 05:17:26;;;;;;;24.77;15.27;;;4.30;99.90;;;;;;4152454;28;20034;-84
2021/01/02 05:19:26;;;;;;;28.73;15.80;;;4.30;99.90;;;;;;4136801;28;20042;-84
2021/01/02 05:21:28;;;;;;;28.83;16.52;;;4.30;99.90;;;;;;4137973;28;20686;-84
2021/01/02 05:23:30;;;;;;;27.85;15.65;;;4.20;99.90;;;;;;4178209;28;20040;-84
2021/01/02 05:25:30;;;;;;;25.20;15.15;;;4.30;99.90;;;;;;4169746;28;20402;-84
2021/01/02 05:27:35;;;;;;;28.30;15.43;;;4.30;99.90;;;;;;4178166;28;20090;-84
2021/01/02 05:29:35;;;;;;;27.30;15.88;;;4.30;99.90;;;;;;4160946;28;20031;-84
2021/01/02 05:31:37;;;;;;;29.20;15.85;;;4.30;99.90;;;;;;4146470;28;20079;-84
2021/01/02 05:33:40;;;;;;;25.60;15.53;;;4.30;99.90;;;;;;4170736;28;20038;-84
2021/01/02 05:35:40;;;;;;;;;;;4.30;99.90;;;;;;4154625;28;20257;-84
2021/01/02 05:37:41;;;;;;;23.20;13.57;;;4.30;99.90;;;;;;4174394;28;20361;-84
2021/01/02 05:39:49;;;;;;;29.33;16.65;;;4.30;99.90;;;;;;4175249;28;20036;-84
2021/01/02 05:41:53;;;;;;;27.20;15.40;;;4.30;99.90;;;;;;4171231;28;20036;-84
2021/01/02 05:44:11;;;;;;;27.00;15.32;;;4.30;99.90;;;;;;4152824;28;20026;-84
2021/01/02 05:46:13;;;;;;;27.30;15.10;;;4.30;99.90;;;;;;4169133;28;20584;-84
2021/01/02 05:48:17;;;;;;;25.77;15.88;;;4.30;99.90;;;;;;4163988;28;20788;-84
2021/01/02 05:50:20;;;;;;;25.85;15.00;;;4.30;99.90;;;;;;4159220;28;20029;-84
2021/01/02 05:52:31;;;;;;;26.35;15.43;;;4.30;99.90;;;;;;4165124;28;20051;-84
2021/01/02 05:54:34;;;;;;;31.15;16.70;;;4.30;99.90;;;;;;4146177;28;20033;-84
2021/01/02 05:56:45;;;;;;;;;;;4.30;99.90;;;;;;4172999;28;20072;-84
2021/01/02 05:58:46;;;;;;;27.17;15.55;;;4.30;99.90;;;;;;4170856;28;19916;-83
2021/01/02 06:00:47;;;;;;;28.02;15.93;;;4.30;99.90;;;;;;4148832;28;20034;-83
2021/01/02 06:02:47;;;;;;;25.75;16.20;;;4.30;99.90;;;;;;4163488;28;20036;-83
2021/01/02 06:04:55;;;;;;;29.23;16.58;;;4.30;99.90;;;;;;4146439;28;20111;-83
2021/01/02 06:07:08;;;;;;;29.27;15.95;;;4.30;99.90;;;;;;4141642;28;20105;-83
2021/01/02 06:09:09;;;;;;;23.83;15.13;;;4.30;99.90;;;;;;4156053;28;20044;-83
2021/01/02 06:11:14;;;;;;;29.63;16.45;;;4.30;99.90;;;;;;4146266;28;20030;-83
2021/01/02 06:13:17;;;;;;;30.38;16.70;;;4.20;99.90;;;;;;4163851;28;20037;-83
2021/01/02 06:15:24;;;;;;;;;;;4.20;99.90;;;;;;4163190;28;20112;-83
2021/01/02 06:17:32;;;;;;;26.90;16.05;;;4.30;99.90;;;;;;4146343;28;19937;-83
2021/01/02 06:19:34;;;;;;;25.67;15.45;;;4.30;99.90;;;;;;4163118;28;20029;-83
2021/01/02 06:21:52;;;;;;;27.02;16.10;;;4.30;99.90;;;;;;4171411;28;20033;-83
2021/01/02 06:23:53;;;;;;;28.20;16.20;;;4.30;99.90;;;;;;4151963;28;20120;-83
2021/01/02 06:26:04;;;;;;;29.70;16.75;;;4.30;99.90;;;;;;4167537;28;20029;-83
2021/01/02 06:28:07;;;;;;;29.60;16.88;;;4.30;99.90;;;;;;4172307;28;20025;-83
2021/01/02 06:30:08;;;;;;;28.92;17.15;;;4.30;99.90;;;;;;4170111;28;20025;-83
2021/01/02 06:32:09;;;;;;;30.67;16.17;;;4.30;99.90;;;;;;4173733;28;20105;-84
2021/01/02 06:34:11;;;;;;;25.95;16.30;;;4.30;99.90;;;;;;4157233;28;20144;-83
2021/01/02 06:36:28;;;;;;;27.17;15.93;;;4.30;99.90;;;;;;4152929;28;20057;-84
2021/01/02 06:38:29;;;;;;;30.83;15.85;;;4.30;99.90;;;;;;4162700;28;20033;-83
2021/01/02 06:40:52;;;;;;;25.02;15.00;;;4.30;99.90;;;;;;4138691;28;20052;-83
2021/01/02 06:42:57;;;;;;;29.80;16.70;;;4.40;99.90;;;;;;4162768;28;20048;-83
2021/01/02 06:44:59;;;;;;;27.13;16.10;;;4.40;99.90;;;;;;4171709;28;20029;-83
2021/01/02 06:47:18;;;;;;;27.35;16.50;;;4.40;99.90;;;;;;4156100;28;20030;-83
2021/01/02 06:49:33;;;;;;;33.17;16.70;;;4.40;99.90;;;;;;4164089;28;20084;-83
2021/01/02 06:51:50;;;;;;;27.35;16.33;;;4.40;99.90;;;;;;4173526;28;20028;-83
2021/01/02 06:53:50;;;;;;;33.50;19.17;;;4.40;99.90;;;;;;4164785;28;20040;-83
2021/01/02 06:56:16;;;;;;;27.85;16.30;;;4.30;99.90;;;;;;4166380;28;20136;-83
2021/01/02 06:58:18;;;;;;;30.10;16.95;;;4.30;99.90;;;;;;4153454;28;20551;-83
2021/01/02 07:00:23;;;;;;;29.02;16.08;;;4.30;99.90;;;;;;4171677;28;20107;-83
2021/01/02 07:02:39;;;;;;;31.50;17.52;;;4.40;99.90;;;;;;4166516;28;20025;-83
2021/01/02 07:04:52;;;;;;;28.20;15.85;;;4.30;99.90;;;;;;4150881;28;20401;-83
2021/01/02 07:06:52;;;;;;;31.20;17.20;;;4.30;99.90;;;;;;4167092;28;20034;-83
2021/01/02 07:08:59;;;;;;;29.58;16.38;;;4.30;99.90;;;;;;4174479;28;20037;-83
2021/01/02 07:11:31;;;;;;;30.67;17.58;;;4.30;99.90;;;;;;4147090;28;20066;-83
2021/01/02 07:13:32;;;;;;;31.05;17.35;;;4.30;99.90;;;;;;4158213;28;20053;-83
2021/01/02 07:15:33;;;;;;;34.03;18.48;;;4.30;99.90;;;;;;4169213;28;20964;-83
2021/01/02 07:17:33;;;;;;;32.67;17.65;;;4.30;99.90;;;;;;4148070;28;20100;-83
2021/01/02 07:19:42;;;;;;;36.22;18.77;;;4.30;99.90;;;;;;4168915;28;20128;-83
2021/01/02 07:21:44;;;;;;;35.15;18.83;;;4.20;99.90;;;;;;4175678;28;20064;-83
2021/01/02 07:23:45;;;;;;;31.27;17.90;;;4.20;99.90;;;;;;4145675;28;20034;-83
2021/01/02 07:25:45;;;;;;;32.92;18.30;;;4.20;99.90;;;;;;4163914;28;20442;-83
2021/01/02 07:28:02;;;;;;;32.40;17.48;;;4.20;99.90;;;;;;4168319;28;20036;-83
2021/01/02 07:30:22;;;;;;;33.55;18.10;;;4.20;99.90;;;;;;4150253;28;20034;-83
2021/01/02 07:32:30;;;;;;;37.78;19.35;;;4.30;99.90;;;;;;4163436;28;20029;-83
2021/01/02 07:34:40;;;;;;;32.28;17.88;;;4.20;99.90;;;;;;4157738;28;20029;-83
2021/01/02 07:36:48;;;;;;;32.08;17.98;;;4.20;99.90;;;;;;4162710;28;20490;-83
2021/01/02 07:38:49;;;;;;;33.28;17.45;;;4.20;99.90;;;;;;4163512;28;20153;-83
2021/01/02 07:40:50;;;;;;;34.33;18.52;;;4.20;99.90;;;;;;4175035;28;20087;-83
2021/01/02 07:42:53;;;;;;;31.75;17.70;;;4.20;99.90;;;;;;4167442;28;20037;-83
2021/01/02 07:44:56;;;;;;;34.78;18.50;;;4.20;99.90;;;;;;4157928;28;20430;-84
2021/01/02 07:46:57;;;;;;;32.05;18.58;;;4.30;99.90;;;;;;4160058;28;20377;-84
2021/01/02 07:48:58;;;;;;;35.92;20.25;;;4.20;99.90;;;;;;4175072;28;20038;-84
2021/01/02 07:51:27;;;;;;;42.28;20.85;;;4.20;99.90;;;;;;4175403;28;20044;-84
2021/01/02 07:53:27;;;;;;;33.08;18.10;;;4.20;99.90;;;;;;4172869;28;20040;-84
2021/01/02 07:55:48;;;;;;;33.20;18.85;;;4.20;99.90;;;;;;4165459;28;20034;-83
2021/01/02 07:57:48;;;;;;;35.63;19.25;;;4.20;99.90;;;;;;4173402;28;20037;-84
2021/01/02 07:59:49;;;;;;;34.80;19.83;;;4.20;99.90;;;;;;4171755;28;20054;-84
2021/01/02 08:02:01;;;;;;;38.50;19.25;;;4.20;99.90;;;;;;4169177;28;20025;-84
2021/01/02 08:04:10;;;;;;;37.30;19.42;;;4.20;99.90;;;;;;4157007;28;20095;-84
2021/01/02 08:06:11;;;;;;;40.33;20.70;;;4.20;99.90;;;;;;4171488;28;20084;-84
2021/01/02 08:08:18;;;;;;;38.45;20.33;;;4.20;99.90;;;;;;4153174;28;20160;-84
2021/01/02 08:10:22;;;;;;;41.08;20.52;;;4.20;99.90;;;;;;4137302;28;20033;-84
2021/01/02 08:12:22;;;;;;;38.75;20.52;;;4.20;99.90;;;;;;4161581;28;20591;-84
2021/01/02 08:14:25;;;;;;;40.50;21.02;;;4.20;99.90;;;;;;4176518;28;20040;-84
2021/01/02 08:16:32;;;;;;;37.78;20.83;;;4.20;99.90;;;;;;4151757;28;20057;-85
2021/01/02 08:18:33;;;;;;;38.22;19.15;;;4.20;99.90;;;;;;4160632;28;20045;-84
2021/01/02 08:20:34;;;;;;;40.22;21.60;;;4.20;99.90;;;;;;4168245;28;20048;-84
2021/01/02 08:22:37;;;;;;;43.50;22.75;;;4.20;99.90;;;;;;4172513;28;20036;-84
2021/01/02 08:24:39;;;;;;;42.00;21.48;;;4.10;99.90;;;;;;4175658;28;20100;-84
2021/01/02 08:26:54;;;;;;;43.30;22.65;;;4.20;99.90;;;;;;4174330;28;20033;-84
2021/01/02 08:28:55;;;;;;;42.15;22.33;;;4.10;99.90;;;;;;4151717;28;20065;-84
2021/01/02 08:31:01;;;;;;;45.65;23.67;;;4.20;99.90;;;;;;4170604;28;20033;-84
2021/01/02 08:33:02;;;;;;;40.80;22.67;;;4.10;99.90;;;;;;4153125;28;20034;-84
2021/01/02 08:35:16;;;;;;;42.55;22.10;;;4.10;99.90;;;;;;4170924;28;20607;-84
2021/01/02 08:37:20;;;;;;;43.45;22.13;;;4.20;99.90;;;;;;4150516;28;20390;-84
2021/01/02 08:39:20;;;;;;;44.08;22.00;;;4.20;99.90;;;;;;4162454;28;20041;-84
2021/01/02 08:41:22;;;;;;;51.15;23.73;;;4.20;99.90;;;;;;4174325;28;20517;-84
2021/01/02 08:43:24;;;;;;;45.45;23.48;;;4.20;99.90;;;;;;4172074;28;20029;-84
2021/01/02 08:45:31;;;;;;;51.13;23.20;;;4.20;99.90;;;;;;4160083;28;20030;-84
2021/01/02 08:47:32;;;;;;;44.88;22.95;;;4.20;99.90;;;;;;4143655;28;20196;-85
2021/01/02 08:49:41;;;;;;;44.40;22.10;;;4.20;99.90;;;;;;4149088;28;20394;-85
2021/01/02 08:51:42;;;;;;;43.95;22.88;;;4.20;99.90;;;;;;4171475;28;20060;-85
2021/01/02 08:53:42;;;;;;;47.83;24.35;;;4.20;99.90;;;;;;4150271;28;20031;-85
2021/01/02 08:55:43;;;;;;;48.00;23.90;;;4.20;99.90;;;;;;4154879;28;20117;-85
2021/01/02 08:57:48;;;;;;;45.42;23.92;;;4.30;99.90;;;;;;4145379;28;20033;-85
2021/01/02 08:59:48;;;;;;;47.65;24.90;;;4.30;99.90;;;;;;4175507;28;20121;-84
2021/01/02 09:01:49;;;;;;;44.88;21.67;;;4.30;99.90;;;;;;4175668;28;20032;-84
2021/01/02 09:03:50;;;;;;;49.65;25.77;;;4.20;99.90;;;;;;4169480;28;20063;-84
2021/01/02 09:05:50;;;;;;;45.33;22.65;;;4.30;99.90;;;;;;4153231;28;20057;-84
2021/01/02 09:07:53;;;;;;;44.88;24.02;;;4.40;99.90;;;;;;4171659;28;20033;-84
2021/01/02 09:10:15;;;;;;;49.30;23.60;;;4.40;99.90;;;;;;4171617;28;20029;-84
2021/01/02 09:12:19;;;;;;;48.08;23.83;;;4.40;99.90;;;;;;4148095;28;20038;-84
2021/01/02 09:14:19;;;;;;;51.53;26.13;;;4.40;99.90;;;;;;4155141;28;20041;-85
2021/01/02 09:16:20;;;;;;;50.97;24.92;;;4.40;99.90;;;;;;4161059;28;20026;-84
2021/01/02 09:18:32;;;;;;;53.85;25.63;;;4.40;99.90;;;;;;4168253;28;20048;-84
2021/01/02 09:20:32;;;;;;;54.17;26.25;;;4.30;99.90;;;;;;4169623;28;20034;-84
2021/01/02 09:22:54;;;;;;;50.10;24.50;;;4.30;99.90;;;;;;4154735;28;20104;-85
2021/01/02 09:25:11;;;;;;;46.10;23.30;;;4.30;99.90;;;;;;4151273;28;20320;-83
2021/01/02 09:27:12;;;;;;;48.40;23.30;;;4.30;99.90;;;;;;4163584;28;20038;-83
2021/01/02 09:29:14;;;;;;;47.13;23.85;;;4.30;99.90;;;;;;4155159;28;20034;-84
2021/01/02 09:31:15;;;;;;;63.85;27.42;;;4.30;99.90;;;;;;4171781;28;20040;-83
2021/01/02 09:33:16;;;;;;;47.72;24.20;;;4.30;99.90;;;;;;4174727;28;20041;-84
2021/01/02 09:35:16;;;;;;;59.60;28.35;;;4.30;99.90;;;;;;4165724;28;20029;-83
2021/01/02 09:37:17;;;;;;;62.22;28.73;;;4.20;99.90;;;;;;4145917;28;20026;-83
2021/01/02 09:39:30;;;;;;;55.15;27.35;;;4.20;99.90;;;;;;4152990;28;20116;-83
2021/01/02 09:41:30;;;;;;;56.40;27.80;;;4.10;99.90;;;;;;4165674;28;20060;-83
2021/01/02 09:43:31;;;;;;;60.78;27.83;;;4.10;99.90;;;;;;4166201;28;20029;-83
2021/01/02 09:45:34;;;;;;;61.47;28.73;;;4.00;99.90;;;;;;4172022;28;20033;-83
2021/01/02 09:47:34;;;;;;;55.13;27.25;;;4.00;99.90;;;;;;4173528;28;20033;-84
2021/01/02 09:49:35;;;;;;;64.60;29.17;;;4.00;99.90;;;;;;4155203;28;20439;-83
2021/01/02 09:51:36;;;;;;;62.10;27.67;;;4.10;99.90;;;;;;4171941;28;20636;-83
2021/01/02 09:53:43;;;;;;;67.43;28.73;;;4.00;99.90;;;;;;4167183;28;20080;-84
2021/01/02 09:55:44;;;;;;;65.28;29.27;;;4.10;99.90;;;;;;4166788;28;20549;-84
2021/01/02 09:57:46;;;;;;;53.22;25.30;;;4.10;99.90;;;;;;4169247;28;20512;-84
2021/01/02 09:59:47;;;;;;;50.03;24.13;;;4.10;99.90;;;;;;4167263;28;20068;-83
2021/01/02 10:01:51;;;;;;;55.83;26.35;;;4.10;99.90;;;;;;4167043;28;20041;-83
2021/01/02 10:03:52;;;;;;;60.65;27.23;;;4.20;99.90;;;;;;4165880;28;20078;-83
2021/01/02 10:05:53;;;;;;;60.90;28.45;;;4.20;99.90;;;;;;4156687;28;20026;-83
2021/01/02 10:07:54;;;;;;;55.95;25.92;;;4.20;99.90;;;;;;4175786;28;20037;-83
2021/01/02 10:09:57;;;;;;;58.60;27.00;;;4.20;99.90;;;;;;4154771;28;20029;-83
2021/01/02 10:11:58;;;;;;;55.38;25.95;;;4.20;99.90;;;;;;4149659;28;20109;-83
2021/01/02 10:14:00;;;;;;;69.75;30.83;;;4.30;99.90;;;;;;4179039;28;20090;-83
2021/01/02 10:16:01;;;;;;;;;;;4.30;99.90;;;;;;4144690;28;20085;-83
2021/01/02 10:18:02;;;;;;;65.85;28.40;;;4.20;99.90;;;;;;4180214;28;19928;-83
2021/01/02 10:20:30;;;;;;;57.53;26.52;;;4.20;99.90;;;;;;4157198;28;20034;-83
2021/01/02 10:22:34;;;;;;;55.75;27.42;;;4.30;99.90;;;;;;4175507;28;20032;-84
2021/01/02 10:24:37;;;;;;;63.10;28.00;;;4.30;99.90;;;;;;4167975;28;20029;-82
2021/01/02 10:26:37;;;;;;;64.35;28.15;;;4.30;99.90;;;;;;4168423;28;20040;-82
2021/01/02 10:28:39;;;;;;;63.95;29.95;;;4.30;99.90;;;;;;4170765;28;20497;-82
2021/01/02 10:30:39;;;;;;;72.75;30.88;;;4.30;99.90;;;;;;4153270;28;20100;-82
2021/01/02 10:32:40;;;;;;;61.38;27.30;;;4.30;99.90;;;;;;4165697;28;20033;-82
2021/01/02 10:34:48;;;;;;;63.42;29.25;;;4.30;99.90;;;;;;4165527;28;20037;-82
2021/01/02 10:36:49;;;;;;;63.83;28.00;;;4.30;99.90;;;;;;4161966;28;20088;-82
2021/01/02 10:38:49;;;;;;;60.05;28.85;;;4.30;99.90;;;;;;4165355;28;20144;-82
2021/01/02 10:40:51;;;;;;;62.58;29.27;;;4.30;99.90;;;;;;4165469;28;20035;-82
2021/01/02 10:42:52;;;;;;;62.72;29.33;;;4.30;99.90;;;;;;4162936;28;20029;-82
2021/01/02 10:45:04;;;;;;;67.78;30.15;;;4.40;99.90;;;;;;4164252;28;20125;-82
2021/01/02 10:47:05;;;;;;;62.65;27.98;;;4.30;99.90;;;;;;4152161;28;20588;-82
2021/01/02 10:49:15;;;;;;;54.35;25.33;;;4.30;99.90;;;;;;4151914;28;20086;-82
2021/01/02 10:51:18;;;;;;;60.60;26.65;;;4.30;99.90;;;;;;4157108;28;20026;-82